Main page
METAR-TAF:

METAR-TAF

Airports :

Parnaíba-Prefeito Dr. João Silva Filho International Airport

Parnaíba, Piauí, Brazil

latitude: 02-55S, longitude: 041-45W, elevation: 5 m

Current weather observation

The report was made 43 minutes ago, at 14:00 UTC
Wind 3 kt from the South
Temperature 27°C
Humidity 74%
Pressure 1012 hPa
Visibility 10 km or more
Scattered clouds at a height of 1500 ft
Few clouds at a height of 2500 ft, Cumulonimbus.
Broken clouds at a height of 9000 ft
thunderstorm

METAR: SBPB 211400Z 18003KT 9999 TS SCT015 FEW025CB BKN090 27/22 Q1012

Time: 11:43 (14:43 UTC)


TAF: missing

Weather observations and forecasts of more than 4000 airports (METAR and TAF reports).

The available stations are represented by yellow and red dots on the map.

Hover mouse over dot to see the name of the station.

Then click to see weather observations and forecasts.

To change the map : click on the green buttons with a black cross to zoom in, on the green button with a dash to zoom out, or on the green arrows for adjacent maps.


METAR-TAF: